sensor_id;sensor_type;location;lat;lon;timestamp;pressure;altitude;pressure_sealevel;temperature;humidity
32759;BME280;19125;52.360;9.974;2024-01-15T00:02:11;74377.72;;;-145.17;70.67
32759;BME280;19125;52.360;9.974;2024-01-15T00:04:40;71683.84;;;-145.17;70.50
32759;BME280;19125;52.360;9.974;2024-01-15T00:07:06;69062.91;;;-145.17;71.23
32759;BME280;19125;52.360;9.974;2024-01-15T00:09:32;66538.47;;;-145.17;71.30
32759;BME280;19125;52.360;9.974;2024-01-15T00:11:59;64516.94;;;-145.17;71.20
32759;BME280;19125;52.360;9.974;2024-01-15T00:14:24;63001.44;;;-145.17;71.38
32759;BME280;19125;52.360;9.974;2024-01-15T00:16:50;60729.28;;;-145.17;71.79
32759;BME280;19125;52.360;9.974;2024-01-15T00:19:16;58710.69;;;-145.17;71.17
32759;BME280;19125;52.360;9.974;2024-01-15T00:21:42;57449.56;;;-145.17;71.66
32759;BME280;19125;52.360;9.974;2024-01-15T00:24:08;56440.97;;;-145.17;71.46
32759;BME280;19125;52.360;9.974;2024-01-15T00:26:33;55936.78;;;-145.17;71.79
32759;BME280;19125;52.360;9.974;2024-01-15T00:28:58;55684.69;;;-145.17;71.33
32759;BME280;19125;52.360;9.974;2024-01-15T00:31:24;56440.97;;;-145.17;71.16
32759;BME280;19125;52.360;9.974;2024-01-15T00:33:49;58206.19;;;-145.17;71.46
32759;BME280;19125;52.360;9.974;2024-01-15T00:36:14;60981.69;;;-145.17;71.20
32759;BME280;19125;52.360;9.974;2024-01-15T00:38:41;64264.31;;;-145.17;70.72
32759;BME280;19125;52.360;9.974;2024-01-15T00:41:07;67549.63;;;-145.17;70.22
32759;BME280;19125;52.360;9.974;2024-01-15T00:43:33;71494.03;;;-145.17;70.54
32759;BME280;19125;52.360;9.974;2024-01-15T00:46:01;74520.19;;;-145.17;70.04
32759;BME280;19125;52.360;9.974;2024-01-15T00:48:26;77435.75;;;-145.17;70.21
32759;BME280;19125;52.360;9.974;2024-01-15T00:50:51;79366.78;;;-145.17;70.02
32759;BME280;19125;52.360;9.974;2024-01-15T00:53:19;80842.91;;;-145.17;70.04
32759;BME280;19125;52.360;9.974;2024-01-15T00:55:47;82133.22;;;-145.17;69.90
32759;BME280;19125;52.360;9.974;2024-01-15T00:58:12;83223.69;;;-145.17;70.01
32759;BME280;19125;52.360;9.974;2024-01-15T01:00:37;83832.47;;;-145.17;69.70
32759;BME280;19125;52.360;9.974;2024-01-15T01:03:03;83985.19;;;-145.17;69.24
32759;BME280;19125;52.360;9.974;2024-01-15T01:05:28;84201.38;;;-145.17;69.37
32759;BME280;19125;52.360;9.974;2024-01-15T01:07:54;84405.69;;;-145.17;69.17
32759;BME280;19125;52.360;9.974;2024-01-15T01:10:19;84435.44;;;-145.17;69.63
32759;BME280;19125;52.360;9.974;2024-01-15T01:12:44;84481.06;;;-145.17;69.22
32759;BME280;19125;52.360;9.974;2024-01-15T01:15:09;84574.28;;;-145.17;69.40
32759;BME280;19125;52.360;9.974;2024-01-15T01:17:35;84857.94;;;-145.17;69.49
32759;BME280;19125;52.360;9.974;2024-01-15T01:20:01;85094.00;;;-145.17;68.89
32759;BME280;19125;52.360;9.974;2024-01-15T01:22:29;85465.00;;;-145.17;69.20
32759;BME280;19125;52.360;9.974;2024-01-15T01:24:55;85867.78;;;-145.17;69.12
32759;BME280;19125;52.360;9.974;2024-01-15T01:27:20;86175.34;;;-145.17;69.19
32759;BME280;19125;52.360;9.974;2024-01-15T01:29:45;86252.75;;;-145.17;68.71
32759;BME280;19125;52.360;9.974;2024-01-15T01:32:10;86409.50;;;-145.17;68.97
32759;BME280;19125;52.360;9.974;2024-01-15T01:34:40;86687.34;;;-145.17;68.91
32759;BME280;19125;52.360;9.974;2024-01-15T01:37:12;86913.59;;;-145.17;68.83
32759;BME280;19125;52.360;9.974;2024-01-15T01:39:38;87177.59;;;-145.17;68.55
32759;BME280;19125;52.360;9.974;2024-01-15T01:42:04;87405.84;;;-145.17;68.42
32759;BME280;19125;52.360;9.974;2024-01-15T01:44:29;87644.06;;;-145.17;68.27
32759;BME280;19125;52.360;9.974;2024-01-15T01:46:56;87900.16;;;-145.17;68.18
32759;BME280;19125;52.360;9.974;2024-01-15T01:49:23;88132.41;;;-145.17;68.15
32759;BME280;19125;52.360;9.974;2024-01-15T01:51:49;88295.22;;;-145.17;67.46
32759;BME280;19125;52.360;9.974;2024-01-15T01:54:15;88382.59;;;-145.17;67.48
32759;BME280;19125;52.360;9.974;2024-01-15T01:56:41;88456.03;;;-145.17;67.30
32759;BME280;19125;52.360;9.974;2024-01-15T01:59:09;88489.78;;;-145.17;67.25
32759;BME280;19125;52.360;9.974;2024-01-15T02:01:36;88517.59;;;-145.17;67.52
32759;BME280;19125;52.360;9.974;2024-01-15T02:04:01;88565.25;;;-145.17;67.11
32759;BME280;19125;52.360;9.974;2024-01-15T02:06:28;88604.97;;;-145.17;66.97
32759;BME280;19125;52.360;9.974;2024-01-15T02:08:53;88618.84;;;-145.17;66.46
32759;BME280;19125;52.360;9.974;2024-01-15T02:11:19;88626.81;;;-145.17;65.98
32759;BME280;19125;52.360;9.974;2024-01-15T02:13:45;88648.66;;;-145.17;65.44
32759;BME280;19125;52.360;9.974;2024-01-15T02:16:10;88652.63;;;-145.17;65.76
32759;BME280;19125;52.360;9.974;2024-01-15T02:18:42;88601.00;;;-145.17;65.33
32759;BME280;19125;52.360;9.974;2024-01-15T02:21:09;88599.00;;;-145.17;65.20
32759;BME280;19125;52.360;9.974;2024-01-15T02:23:34;88561.28;;;-145.17;64.74
32759;BME280;19125;52.360;9.974;2024-01-15T02:26:00;88557.31;;;-145.17;64.51
32759;BME280;19125;52.360;9.974;2024-01-15T02:28:26;88517.59;;;-145.17;64.58
32759;BME280;19125;52.360;9.974;2024-01-15T02:30:51;88533.47;;;-145.17;63.95
32759;BME280;19125;52.360;9.974;2024-01-15T02:33:17;88513.63;;;-145.17;63.67
32759;BME280;19125;52.360;9.974;2024-01-15T02:35:42;88456.03;;;-145.17;63.98
32759;BME280;19125;52.360;9.974;2024-01-15T02:38:08;88410.38;;;-145.17;63.63
32759;BME280;19125;52.360;9.974;2024-01-15T02:40:33;88410.38;;;-145.17;63.11
32759;BME280;19125;52.360;9.974;2024-01-15T02:42:59;88382.59;;;-145.17;63.17
32759;BME280;19125;52.360;9.974;2024-01-15T02:45:25;88390.53;;;-145.17;63.46
32759;BME280;19125;52.360;9.974;2024-01-15T02:47:50;88386.56;;;-145.17;62.94
32759;BME280;19125;52.360;9.974;2024-01-15T02:50:16;88354.78;;;-145.17;63.08
32759;BME280;19125;52.360;9.974;2024-01-15T02:52:41;88342.88;;;-145.17;62.94
32759;BME280;19125;52.360;9.974;2024-01-15T02:55:07;88334.94;;;-145.17;62.78
32759;BME280;19125;52.360;9.974;2024-01-15T02:57:33;88315.06;;;-145.17;62.64
32759;BME280;19125;52.360;9.974;2024-01-15T02:59:58;88291.25;;;-145.17;62.59
32759;BME280;19125;52.360;9.974;2024-01-15T03:02:23;88269.41;;;-145.17;62.41
32759;BME280;19125;52.360;9.974;2024-01-15T03:04:49;88263.47;;;-145.17;62.11
32759;BME280;19125;52.360;9.974;2024-01-15T03:07:15;88259.47;;;-145.17;62.34
32759;BME280;19125;52.360;9.974;2024-01-15T03:09:40;88241.63;;;-145.17;61.98
32759;BME280;19125;52.360;9.974;2024-01-15T03:12:06;88239.63;;;-145.17;62.41
32759;BME280;19125;52.360;9.974;2024-01-15T03:14:31;88267.44;;;-145.17;61.98
32759;BME280;19125;52.360;9.974;2024-01-15T03:16:57;88207.88;;;-145.17;62.13
32759;BME280;19125;52.360;9.974;2024-01-15T03:19:22;88251.53;;;-145.17;62.14
32759;BME280;19125;52.360;9.974;2024-01-15T03:21:48;88209.84;;;-145.17;61.81
32759;BME280;19125;52.360;9.974;2024-01-15T03:24:13;88211.84;;;-145.17;61.73
32759;BME280;19125;52.360;9.974;2024-01-15T03:26:38;88205.88;;;-145.17;61.61
32759;BME280;19125;52.360;9.974;2024-01-15T03:29:04;88178.09;;;-145.17;61.78
32759;BME280;19125;52.360;9.974;2024-01-15T03:31:29;88184.03;;;-145.17;61.78
32759;BME280;19125;52.360;9.974;2024-01-15T03:33:55;88209.84;;;-145.17;61.24
32759;BME280;19125;52.360;9.974;2024-01-15T03:36:20;88162.19;;;-145.17;61.94
32759;BME280;19125;52.360;9.974;2024-01-15T03:38:46;88184.03;;;-145.17;61.54
32759;BME280;19125;52.360;9.974;2024-01-15T03:41:12;88156.25;;;-145.17;61.58
32759;BME280;19125;52.360;9.974;2024-01-15T03:43:37;88191.97;;;-145.17;61.49
32759;BME280;19125;52.360;9.974;2024-01-15T03:46:03;88152.28;;;-145.17;61.28
32759;BME280;19125;52.360;9.974;2024-01-15T03:48:29;88148.31;;;-145.17;61.43
32759;BME280;19125;52.360;9.974;2024-01-15T03:50:55;88207.88;;;-145.17;62.02
32759;BME280;19125;52.360;9.974;2024-01-15T03:53:20;88245.59;;;-145.17;61.95
32759;BME280;19125;52.360;9.974;2024-01-15T03:55:46;88285.28;;;-145.17;62.47
32759;BME280;19125;52.360;9.974;2024-01-15T03:58:11;88354.78;;;-145.17;63.00
32759;BME280;19125;52.360;9.974;2024-01-15T04:00:36;88350.81;;;-145.17;63.08
32759;BME280;19125;52.360;9.974;2024-01-15T04:03:02;88356.78;;;-145.17;63.10
32759;BME280;19125;52.360;9.974;2024-01-15T04:05:27;88372.66;;;-145.17;63.29
32759;BME280;19125;52.360;9.974;2024-01-15T04:07:53;88340.88;;;-145.17;62.89
32759;BME280;19125;52.360;9.974;2024-01-15T04:10:18;88344.84;;;-145.17;63.02
32759;BME280;19125;52.360;9.974;2024-01-15T04:12:44;88328.97;;;-145.17;62.44
32759;BME280;19125;52.360;9.974;2024-01-15T04:15:12;88299.19;;;-145.17;62.63
32759;BME280;19125;52.360;9.974;2024-01-15T04:17:37;88279.34;;;-145.17;62.54
32759;BME280;19125;52.360;9.974;2024-01-15T04:20:03;88295.22;;;-145.17;62.42
32759;BME280;19125;52.360;9.974;2024-01-15T04:22:28;88223.75;;;-145.17;62.26
32759;BME280;19125;52.360;9.974;2024-01-15T04:24:54;88271.41;;;-145.17;61.92
32759;BME280;19125;52.360;9.974;2024-01-15T04:27:19;88259.47;;;-145.17;62.39
32759;BME280;19125;52.360;9.974;2024-01-15T04:29:44;88223.75;;;-145.17;62.39
32759;BME280;19125;52.360;9.974;2024-01-15T04:32:10;88241.63;;;-145.17;62.06
32759;BME280;19125;52.360;9.974;2024-01-15T04:34:35;88239.63;;;-145.17;61.60
32759;BME280;19125;52.360;9.974;2024-01-15T04:37:01;88211.84;;;-145.17;61.76
32759;BME280;19125;52.360;9.974;2024-01-15T04:39:26;88211.84;;;-145.17;61.91
32759;BME280;19125;52.360;9.974;2024-01-15T04:41:51;88241.63;;;-145.17;61.99
32759;BME280;19125;52.360;9.974;2024-01-15T04:44:17;88227.72;;;-145.17;62.28
32759;BME280;19125;52.360;9.974;2024-01-15T04:46:42;88311.09;;;-145.17;62.97
32759;BME280;19125;52.360;9.974;2024-01-15T04:49:09;88338.91;;;-145.17;63.06
32759;BME280;19125;52.360;9.974;2024-01-15T04:51:34;88416.34;;;-145.17;63.33
32759;BME280;19125;52.360;9.974;2024-01-15T04:54:00;88426.25;;;-145.17;64.16
32759;BME280;19125;52.360;9.974;2024-01-15T04:56:25;88521.56;;;-145.17;64.39
32759;BME280;19125;52.360;9.974;2024-01-15T04:58:50;88539.44;;;-145.17;64.36
32759;BME280;19125;52.360;9.974;2024-01-15T05:01:16;88569.22;;;-145.17;64.75
32759;BME280;19125;52.360;9.974;2024-01-15T05:03:42;88610.91;;;-145.17;65.08
32759;BME280;19125;52.360;9.974;2024-01-15T05:06:07;88662.53;;;-145.17;65.19
32759;BME280;19125;52.360;9.974;2024-01-15T05:08:32;88648.66;;;-145.17;65.55
32759;BME280;19125;52.360;9.974;2024-01-15T05:10:58;88664.53;;;-145.17;65.47
32759;BME280;19125;52.360;9.974;2024-01-15T05:13:23;88686.38;;;-145.17;65.86
32759;BME280;19125;52.360;9.974;2024-01-15T05:15:48;88690.34;;;-145.17;65.84
32759;BME280;19125;52.360;9.974;2024-01-15T05:18:14;88640.69;;;-145.17;65.46
32759;BME280;19125;52.360;9.974;2024-01-15T05:20:39;88656.59;;;-145.17;65.28
32759;BME280;19125;52.360;9.974;2024-01-15T05:23:04;88726.09;;;-145.17;65.73
32759;BME280;19125;52.360;9.974;2024-01-15T05:25:30;88680.41;;;-145.17;65.43
32759;BME280;19125;52.360;9.974;2024-01-15T05:27:55;88702.25;;;-145.17;65.84
32759;BME280;19125;52.360;9.974;2024-01-15T05:30:20;88690.34;;;-145.17;66.10
32759;BME280;19125;52.360;9.974;2024-01-15T05:32:46;88718.13;;;-145.17;66.12
32759;BME280;19125;52.360;9.974;2024-01-15T05:35:11;88722.13;;;-145.17;66.22
32759;BME280;19125;52.360;9.974;2024-01-15T05:37:36;88724.09;;;-145.17;66.39
32759;BME280;19125;52.360;9.974;2024-01-15T05:40:02;88718.13;;;-145.17;66.14
32759;BME280;19125;52.360;9.974;2024-01-15T05:42:29;88686.38;;;-145.17;66.61
32759;BME280;19125;52.360;9.974;2024-01-15T05:44:57;88706.22;;;-145.17;66.37
32759;BME280;19125;52.360;9.974;2024-01-15T05:47:24;88702.25;;;-145.17;65.56
32759;BME280;19125;52.360;9.974;2024-01-15T05:49:49;88690.34;;;-145.17;65.80
32759;BME280;19125;52.360;9.974;2024-01-15T05:52:15;88668.50;;;-145.17;65.25
32759;BME280;19125;52.360;9.974;2024-01-15T05:54:41;88616.88;;;-145.17;65.17
32759;BME280;19125;52.360;9.974;2024-01-15T05:57:07;88628.78;;;-145.17;65.31
32759;BME280;19125;52.360;9.974;2024-01-15T05:59:33;88608.94;;;-145.17;65.23
32759;BME280;19125;52.360;9.974;2024-01-15T06:02:01;88595.03;;;-145.17;64.47
32759;BME280;19125;52.360;9.974;2024-01-15T06:04:26;88561.28;;;-145.17;64.18
32759;BME280;19125;52.360;9.974;2024-01-15T06:06:51;88557.31;;;-145.17;64.51
32759;BME280;19125;52.360;9.974;2024-01-15T06:09:17;88545.41;;;-145.17;64.42
32759;BME280;19125;52.360;9.974;2024-01-15T06:11:42;88559.28;;;-145.17;64.45
32759;BME280;19125;52.360;9.974;2024-01-15T06:14:08;88553.34;;;-145.17;63.97
32759;BME280;19125;52.360;9.974;2024-01-15T06:16:33;88557.31;;;-145.17;64.24
32759;BME280;19125;52.360;9.974;2024-01-15T06:18:58;88521.56;;;-145.17;64.05
32759;BME280;19125;52.360;9.974;2024-01-15T06:21:24;88549.38;;;-145.17;64.51
32759;BME280;19125;52.360;9.974;2024-01-15T06:23:49;88569.22;;;-145.17;64.29
32759;BME280;19125;52.360;9.974;2024-01-15T06:26:14;88581.13;;;-145.17;64.60
32759;BME280;19125;52.360;9.974;2024-01-15T06:28:40;88604.97;;;-145.17;64.74
32759;BME280;19125;52.360;9.974;2024-01-15T06:31:08;88601.00;;;-145.17;64.82
32759;BME280;19125;52.360;9.974;2024-01-15T06:33:33;88644.66;;;-145.17;65.54
32759;BME280;19125;52.360;9.974;2024-01-15T06:35:59;88664.53;;;-145.17;65.29
32759;BME280;19125;52.360;9.974;2024-01-15T06:38:24;88656.59;;;-145.17;65.32
32759;BME280;19125;52.360;9.974;2024-01-15T06:40:50;88696.28;;;-145.17;66.21
32759;BME280;19125;52.360;9.974;2024-01-15T06:43:17;88688.34;;;-145.17;66.05
32759;BME280;19125;52.360;9.974;2024-01-15T06:45:45;88700.28;;;-145.17;66.54
32759;BME280;19125;52.360;9.974;2024-01-15T06:48:10;88738.00;;;-145.17;66.29
32759;BME280;19125;52.360;9.974;2024-01-15T06:50:39;88732.03;;;-145.17;66.53
32759;BME280;19125;52.360;9.974;2024-01-15T06:53:05;88728.06;;;-145.17;66.41
32759;BME280;19125;52.360;9.974;2024-01-15T06:55:30;88700.28;;;-145.17;66.79
32759;BME280;19125;52.360;9.974;2024-01-15T06:57:56;88745.94;;;-145.17;66.32
32759;BME280;19125;52.360;9.974;2024-01-15T07:00:21;88749.91;;;-145.17;66.68
32759;BME280;19125;52.360;9.974;2024-01-15T07:02:46;88726.09;;;-145.17;66.46
32759;BME280;19125;52.360;9.974;2024-01-15T07:05:12;88712.19;;;-145.17;66.57
32759;BME280;19125;52.360;9.974;2024-01-15T07:07:37;88716.16;;;-145.17;66.17
32759;BME280;19125;52.360;9.974;2024-01-15T07:10:03;88720.13;;;-145.17;66.31
32759;BME280;19125;52.360;9.974;2024-01-15T07:12:29;88718.13;;;-145.17;66.09
32759;BME280;19125;52.360;9.974;2024-01-15T07:14:56;88686.38;;;-145.17;65.70
32759;BME280;19125;52.360;9.974;2024-01-15T07:17:21;88692.31;;;-145.17;65.66
32759;BME280;19125;52.360;9.974;2024-01-15T07:19:46;88704.25;;;-145.17;65.76
32759;BME280;19125;52.360;9.974;2024-01-15T07:22:12;88654.59;;;-145.17;65.30
32759;BME280;19125;52.360;9.974;2024-01-15T07:24:37;88640.69;;;-145.17;65.17
32759;BME280;19125;52.360;9.974;2024-01-15T07:27:03;88624.81;;;-145.17;65.12
32759;BME280;19125;52.360;9.974;2024-01-15T07:29:30;88614.88;;;-145.17;65.21
32759;BME280;19125;52.360;9.974;2024-01-15T07:31:58;88624.81;;;-145.17;65.19
32759;BME280;19125;52.360;9.974;2024-01-15T07:34:23;88593.03;;;-145.17;65.08
32759;BME280;19125;52.360;9.974;2024-01-15T07:36:48;88591.06;;;-145.17;64.78
32759;BME280;19125;52.360;9.974;2024-01-15T07:39:14;88614.88;;;-145.17;64.67
32759;BME280;19125;52.360;9.974;2024-01-15T07:41:40;88581.13;;;-145.17;64.88
32759;BME280;19125;52.360;9.974;2024-01-15T07:44:05;88591.06;;;-145.17;64.98
32759;BME280;19125;52.360;9.974;2024-01-15T07:46:30;88660.56;;;-145.17;65.19
32759;BME280;19125;52.360;9.974;2024-01-15T07:48:57;88628.78;;;-145.17;65.34
32759;BME280;19125;52.360;9.974;2024-01-15T07:51:26;88630.78;;;-145.17;65.49
32759;BME280;19125;52.360;9.974;2024-01-15T07:53:53;88652.63;;;-145.17;65.45
32759;BME280;19125;52.360;9.974;2024-01-15T07:56:20;88664.53;;;-145.17;65.78
32759;BME280;19125;52.360;9.974;2024-01-15T07:58:46;88698.28;;;-145.17;66.35
32759;BME280;19125;52.360;9.974;2024-01-15T08:01:11;88702.25;;;-145.17;66.23
32759;BME280;19125;52.360;9.974;2024-01-15T08:03:37;88728.06;;;-145.17;66.34
32759;BME280;19125;52.360;9.974;2024-01-15T08:06:02;88743.94;;;-145.17;66.84
32759;BME280;19125;52.360;9.974;2024-01-15T08:08:28;88710.19;;;-145.17;66.82
32759;BME280;19125;52.360;9.974;2024-01-15T08:10:53;88704.25;;;-145.17;67.40
32759;BME280;19125;52.360;9.974;2024-01-15T08:13:18;88696.28;;;-145.17;67.58
32759;BME280;19125;52.360;9.974;2024-01-15T08:15:45;88688.34;;;-145.17;67.81
32759;BME280;19125;52.360;9.974;2024-01-15T08:18:10;88636.72;;;-145.17;67.42
32759;BME280;19125;52.360;9.974;2024-01-15T08:20:36;88612.91;;;-145.17;68.15
32759;BME280;19125;52.360;9.974;2024-01-15T08:23:01;88573.19;;;-145.17;68.14
32759;BME280;19125;52.360;9.974;2024-01-15T08:25:27;88442.16;;;-145.17;68.33
32759;BME280;19125;52.360;9.974;2024-01-15T08:27:52;88358.75;;;-145.17;68.08
32759;BME280;19125;52.360;9.974;2024-01-15T08:30:18;88160.22;;;-145.17;68.91
32759;BME280;19125;52.360;9.974;2024-01-15T08:32:47;88023.22;;;-145.17;68.77
32759;BME280;19125;52.360;9.974;2024-01-15T08:35:13;87626.19;;;-145.17;69.09
32759;BME280;19125;52.360;9.974;2024-01-15T08:37:38;87389.97;;;-145.17;69.28
32759;BME280;19125;52.360;9.974;2024-01-15T08:40:04;86873.91;;;-145.17;69.51
32759;BME280;19125;52.360;9.974;2024-01-15T08:42:30;86467.06;;;-145.17;69.26
32759;BME280;19125;52.360;9.974;2024-01-15T08:44:55;85746.75;;;-145.17;69.43
32759;BME280;19125;52.360;9.974;2024-01-15T08:47:20;85048.38;;;-145.17;69.57
32759;BME280;19125;52.360;9.974;2024-01-15T08:49:46;84143.88;;;-145.17;70.16
32759;BME280;19125;52.360;9.974;2024-01-15T08:52:11;82894.53;;;-145.17;69.95
32759;BME280;19125;52.360;9.974;2024-01-15T08:54:37;81748.66;;;-145.17;70.02
32759;BME280;19125;52.360;9.974;2024-01-15T08:57:02;80959.81;;;-145.17;69.99
32759;BME280;19125;52.360;9.974;2024-01-15T08:59:28;81126.31;;;-145.17;70.17
32759;BME280;19125;52.360;9.974;2024-01-15T09:01:53;82273.97;;;-145.17;69.34
32759;BME280;19125;52.360;9.974;2024-01-15T09:04:19;83858.28;;;-145.17;69.06
32759;BME280;19125;52.360;9.974;2024-01-15T09:06:48;85238.84;;;-145.17;68.75
32759;BME280;19125;52.360;9.974;2024-01-15T09:09:13;86286.47;;;-145.17;68.95
32759;BME280;19125;52.360;9.974;2024-01-15T09:11:40;86996.97;;;-145.17;68.69
32759;BME280;19125;52.360;9.974;2024-01-15T09:14:05;87606.34;;;-145.17;67.90
32759;BME280;19125;52.360;9.974;2024-01-15T09:16:31;88076.84;;;-145.17;67.62
32759;BME280;19125;52.360;9.974;2024-01-15T09:18:56;88330.97;;;-145.17;67.20
32759;BME280;19125;52.360;9.974;2024-01-15T09:21:22;88462.00;;;-145.17;67.33
32759;BME280;19125;52.360;9.974;2024-01-15T09:23:49;88535.47;;;-145.17;67.38
32759;BME280;19125;52.360;9.974;2024-01-15T09:26:15;88601.00;;;-145.17;66.60
32759;BME280;19125;52.360;9.974;2024-01-15T09:28:40;88553.34;;;-145.17;66.68
32759;BME280;19125;52.360;9.974;2024-01-15T09:31:05;88634.75;;;-145.17;66.68
32759;BME280;19125;52.360;9.974;2024-01-15T09:33:31;88628.78;;;-145.17;65.97
32759;BME280;19125;52.360;9.974;2024-01-15T09:35:56;88620.84;;;-145.17;65.90
32759;BME280;19125;52.360;9.974;2024-01-15T09:38:21;88604.97;;;-145.17;65.33
32759;BME280;19125;52.360;9.974;2024-01-15T09:40:47;88622.84;;;-145.17;65.14
32759;BME280;19125;52.360;9.974;2024-01-15T09:43:13;88575.19;;;-145.17;64.84
32759;BME280;19125;52.360;9.974;2024-01-15T09:45:39;88571.22;;;-145.17;64.60
32759;BME280;19125;52.360;9.974;2024-01-15T09:48:05;88525.53;;;-145.17;64.19
32759;BME280;19125;52.360;9.974;2024-01-15T09:50:31;88477.88;;;-145.17;64.03
32759;BME280;19125;52.360;9.974;2024-01-15T09:52:56;88473.91;;;-145.17;63.61
32759;BME280;19125;52.360;9.974;2024-01-15T09:55:23;88434.19;;;-145.17;63.63
32759;BME280;19125;52.360;9.974;2024-01-15T09:57:49;88386.56;;;-145.17;63.33
32759;BME280;19125;52.360;9.974;2024-01-15T10:00:17;88384.56;;;-145.17;63.20
32759;BME280;19125;52.360;9.974;2024-01-15T10:02:43;88297.22;;;-145.17;62.63
32759;BME280;19125;52.360;9.974;2024-01-15T10:05:09;88255.50;;;-145.17;62.33
32759;BME280;19125;52.360;9.974;2024-01-15T10:07:35;88249.56;;;-145.17;62.19
32759;BME280;19125;52.360;9.974;2024-01-15T10:10:02;88211.84;;;-145.17;62.23
32759;BME280;19125;52.360;9.974;2024-01-15T10:12:28;88245.59;;;-145.17;61.76
32759;BME280;19125;52.360;9.974;2024-01-15T10:14:54;88184.03;;;-145.17;61.96
32759;BME280;19125;52.360;9.974;2024-01-15T10:17:21;88150.28;;;-145.17;61.30
32759;BME280;19125;52.360;9.974;2024-01-15T10:19:46;88132.41;;;-145.17;61.28
32759;BME280;19125;52.360;9.974;2024-01-15T10:22:15;88080.81;;;-145.17;61.16
32759;BME280;19125;52.360;9.974;2024-01-15T10:24:41;88138.38;;;-145.17;61.60
32759;BME280;19125;52.360;9.974;2024-01-15T10:27:10;88110.59;;;-145.17;61.13
32759;BME280;19125;52.360;9.974;2024-01-15T10:29:36;88132.41;;;-145.17;61.65
32759;BME280;19125;52.360;9.974;2024-01-15T10:32:06;88128.44;;;-145.17;61.51
32759;BME280;19125;52.360;9.974;2024-01-15T10:34:33;88108.59;;;-145.17;61.33
32759;BME280;19125;52.360;9.974;2024-01-15T10:36:58;88164.19;;;-145.17;62.10
32759;BME280;19125;52.360;9.974;2024-01-15T10:39:24;88182.06;;;-145.17;62.06
32759;BME280;19125;52.360;9.974;2024-01-15T10:41:50;88231.69;;;-145.17;62.37
32759;BME280;19125;52.360;9.974;2024-01-15T10:44:17;88263.47;;;-145.17;62.98
32759;BME280;19125;52.360;9.974;2024-01-15T10:46:43;88342.88;;;-145.17;63.21
32759;BME280;19125;52.360;9.974;2024-01-15T10:49:10;88404.41;;;-145.17;63.56
32759;BME280;19125;52.360;9.974;2024-01-15T10:51:36;88452.06;;;-145.17;63.71
32759;BME280;19125;52.360;9.974;2024-01-15T10:54:01;88503.69;;;-145.17;63.98
32759;BME280;19125;52.360;9.974;2024-01-15T10:56:30;88541.41;;;-145.17;64.98
32759;BME280;19125;52.360;9.974;2024-01-15T10:58:56;88533.47;;;-145.17;64.70
32759;BME280;19125;52.360;9.974;2024-01-15T11:01:23;88565.25;;;-145.17;64.64
32759;BME280;19125;52.360;9.974;2024-01-15T11:03:49;88485.81;;;-145.17;64.71
32759;BME280;19125;52.360;9.974;2024-01-15T11:06:18;88483.84;;;-145.17;63.90
32759;BME280;19125;52.360;9.974;2024-01-15T11:08:48;88452.06;;;-145.17;63.28
32759;BME280;19125;52.360;9.974;2024-01-15T11:11:15;88390.53;;;-145.17;63.23
32759;BME280;19125;52.360;9.974;2024-01-15T11:13:41;88323.03;;;-145.17;62.90
32759;BME280;19125;52.360;9.974;2024-01-15T11:16:10;88297.22;;;-145.17;62.51
32759;BME280;19125;52.360;9.974;2024-01-15T11:18:40;88229.72;;;-145.17;62.02
32759;BME280;19125;52.360;9.974;2024-01-15T11:23:59;88188.00;;;-145.17;61.90
32759;BME280;19125;52.360;9.974;2024-01-15T11:26:32;88148.31;;;-145.17;61.64
32759;BME280;19125;52.360;9.974;2024-01-15T11:29:00;88180.06;;;-145.17;61.27
32759;BME280;19125;52.360;9.974;2024-01-15T11:31:30;88144.34;;;-145.17;61.08
32759;BME280;19125;52.360;9.974;2024-01-15T11:34:12;88088.75;;;-145.17;60.81
32759;BME280;19125;52.360;9.974;2024-01-15T11:41:57;87953.75;;;-145.17;59.74
32759;BME280;19125;52.360;9.974;2024-01-15T11:44:23;87914.03;;;-145.17;59.37
32759;BME280;19125;52.360;9.974;2024-01-15T11:47:03;87902.13;;;-145.17;59.02
32759;BME280;19125;52.360;9.974;2024-01-15T11:52:22;87860.44;;;-145.17;58.71
32759;BME280;19125;52.360;9.974;2024-01-15T11:55:03;87878.31;;;-145.17;58.84
32759;BME280;19125;52.360;9.974;2024-01-15T11:57:45;87878.31;;;-145.17;58.32
32759;BME280;19125;52.360;9.974;2024-01-15T12:00:12;87874.34;;;-145.17;58.66
32759;BME280;19125;52.360;9.974;2024-01-15T12:02:42;87808.81;;;-145.17;58.29
32759;BME280;19125;52.360;9.974;2024-01-15T12:05:09;87846.53;;;-145.17;58.45
32759;BME280;19125;52.360;9.974;2024-01-15T12:07:35;87775.06;;;-145.17;57.83
32759;BME280;19125;52.360;9.974;2024-01-15T12:10:02;87822.72;;;-145.17;57.95
32759;BME280;19125;52.360;9.974;2024-01-15T12:14:58;87822.72;;;-145.17;58.47
32759;BME280;19125;52.360;9.974;2024-01-15T12:17:23;87822.72;;;-145.17;58.37
32759;BME280;19125;52.360;9.974;2024-01-15T12:19:49;87840.59;;;-145.17;58.35
32759;BME280;19125;52.360;9.974;2024-01-15T12:22:14;87842.56;;;-145.17;58.60
32759;BME280;19125;52.360;9.974;2024-01-15T12:24:40;87852.50;;;-145.17;58.82
32759;BME280;19125;52.360;9.974;2024-01-15T12:27:06;87844.56;;;-145.17;58.75
32759;BME280;19125;52.360;9.974;2024-01-15T12:29:33;87852.50;;;-145.17;58.38
32759;BME280;19125;52.360;9.974;2024-01-15T12:31:58;87820.72;;;-145.17;58.51
32759;BME280;19125;52.360;9.974;2024-01-15T12:34:23;87850.50;;;-145.17;58.94
32759;BME280;19125;52.360;9.974;2024-01-15T12:36:49;87874.34;;;-145.17;58.85
32759;BME280;19125;52.360;9.974;2024-01-15T12:39:15;87858.44;;;-145.17;58.64
32759;BME280;19125;52.360;9.974;2024-01-15T12:41:40;87822.72;;;-145.17;58.28
32759;BME280;19125;52.360;9.974;2024-01-15T12:44:06;87824.72;;;-145.17;58.34
32759;BME280;19125;52.360;9.974;2024-01-15T12:46:32;87773.09;;;-145.17;58.48
32759;BME280;19125;52.360;9.974;2024-01-15T12:48:57;87814.78;;;-145.17;58.14